Terminal Aerodrome Forecast
Issued by NWS

Current Version | Previous Version | Text Only | Print | Product List | Glossary On
Versions: 1 2 3 4 5 6 7 8 9 10 11 12 13 14 15 16 17 18 19 20 21 22 23 24 25 26
000
FTUS46 KSEW 242300
TAFSEA
TAF
KSEA 242336Z 2500/2606 19008KT P6SM -RA FEW060 BKN070 OVC100
     FM250200 19008G18KT P6SM -RA BKN015 OVC045
     FM251200 20009KT 4SM -RA BR OVC015
     FM252200 19009KT P6SM -RA BKN015 OVC045=

USA.gov is the U.S. government's official web portal to all federal, state and local government web resources and services.